Airfield :
LOGIN :

Register | Disclaimer

   EN    FR    IT 

 










Legend :    VFR   Marginal VFR   IFR   Intensive IFR   Very Intensive IFR
Visi :
Ceiling :
>= 8 km
>= 3000ft
5 to 8 km
1000 to 3000 ft
1500m to 5 km
500 to 1000 ft
800 to 1500m
200 to 500 ft
< 800m
< 200 ft
Symbols :   Thunderstorms  Fog  Heavy snow  Heavy precipitations  Wind > 20 kt
SIGMETs :     Misc.  Thunderstorms  Icing  Turbulence  Mountain Waves  Volcanic Ashes






- Airport Elevation : 290 ft
- IATA code : LAI


LFRO - Lannion

CURRENT METAR :
  • 271130Z AUTO 28016KT 9999 FEW022 BKN030 OVC036 16/12 Q1009

EXPIRED METARs :
  • 271100Z AUTO 27016KT 9999 FEW018 BKN039 OVC045 16/12 Q1009
  • 271030Z AUTO 28018KT 9999 FEW018 SCT026 BKN045 16/11 Q1009
  • 271000Z AUTO 27014KT 9999 FEW020 BKN028 OVC041 16/11 Q1010
  • 270930Z AUTO 28016KT 9999 FEW022 OVC046 16/11 Q1010
  • 270900Z AUTO 28016KT 9999 FEW025 BKN035 BKN041 15/11 Q1010

Expired Forecast.



MET'MAP, your aeronautical weather chart ! - Copyright ORBIFLY December 2007 - Disclaimer

ORBIFLY MET'MAP TEAM :

Programming & Development : Alexandra Zaïnal
Original concept : Baudouin d'Aumeries
Technical & hardware support : Manuel Goepfert
Assistance : Marc-Olivier Méhu




SOURCES & CREDITS :

   NOAA